Time;durP1;ratioP1;P1;durP2;ratioP2;P2;SDS_P1;SDS_P2;PMS_P1;PMS_P2;Temp;Humidity;BMP_temperature;BMP_pressure;BME280_temperature;BME280_humidity;BME280_pressure;Samples;Min_cycle;Max_cycle;Signal;HPM_P1;HPM_P2
2021/05/06 00:29:37;;;;;;;9.30;6.37;;;5.20;1.00;;;;;;5104751;27;20657;-71
2021/05/06 00:33:49;;;;;;;10.83;6.73;;;5.00;1.00;;;;;;5086919;27;20455;-71
2021/05/06 00:36:15;;;;;;;6.97;5.53;;;5.10;1.00;;;;;;5105767;27;20438;-71
2021/05/06 00:38:47;;;;;;;12.93;7.57;;;5.10;1.00;;;;;;5104488;27;20191;-71
2021/05/06 00:53:53;;;;;;;8.23;6.10;;;5.20;1.00;;;;;;5086801;27;20522;-71
2021/05/06 00:58:14;;;;;;;7.10;5.97;;;5.00;1.00;;;;;;5104841;27;20529;-71
2021/05/06 01:03:35;;;;;;;6.87;6.17;;;5.00;1.00;;;;;;5104416;27;20469;-72
2021/05/06 01:05:39;;;;;;;13.90;6.70;;;5.20;1.00;;;;;;5078695;27;20442;-71
2021/05/06 01:10:50;;;;;;;13.20;7.07;;;5.10;1.00;;;;;;5087785;27;20445;-71
2021/05/06 01:13:22;;;;;;;13.20;6.30;;;4.90;1.00;;;;;;5109678;27;21008;-71
2021/05/06 01:15:48;;;;;;;11.43;6.40;;;4.90;1.00;;;;;;5106452;27;20461;-71
2021/05/06 01:18:14;;;;;;;7.27;6.53;;;4.80;1.00;;;;;;5087226;27;20440;-71
2021/05/06 01:20:46;;;;;;;7.43;6.73;;;4.60;1.00;;;;;;5108887;27;20446;-71
2021/05/06 01:23:13;;;;;;;7.73;6.57;;;4.50;1.00;;;;;;5084184;27;20244;-71
2021/05/06 01:25:41;;;;;;;9.43;7.37;;;4.50;1.00;;;;;;5105118;27;20522;-71
2021/05/06 01:28:10;;;;;;;9.30;6.57;;;4.50;1.00;;;;;;5103861;27;20458;-71
2021/05/06 01:30:44;;;;;;;7.60;6.67;;;4.50;1.00;;;;;;5107111;27;20470;-71
2021/05/06 01:59:25;;;;;;;13.13;8.40;;;4.00;1.00;;;;;;5091130;27;20849;-71
2021/05/06 02:01:52;;;;;;;10.87;8.67;;;3.90;1.00;;;;;;5083680;27;20453;-72
2021/05/06 02:04:18;;;;;;;12.53;9.10;;;4.00;1.00;;;;;;5083581;27;20443;-72
2021/05/06 02:06:45;;;;;;;10.07;8.70;;;4.00;1.00;;;;;;5106312;27;21063;-72
2021/05/06 02:09:26;;;;;;;16.90;9.00;;;4.00;1.00;;;;;;5088502;27;20191;-72
2021/05/06 02:11:51;;;;;;;10.73;8.57;;;4.00;1.00;;;;;;5103881;27;20434;-72
2021/05/06 02:14:29;;;;;;;11.87;10.63;;;4.00;1.00;;;;;;5088242;27;20294;-72
2021/05/06 02:16:55;;;;;;;12.20;10.40;;;4.10;1.00;;;;;;5082951;27;20986;-72
2021/05/06 02:19:29;;;;;;;10.47;8.97;;;4.20;1.00;;;;;;5104143;27;20536;-71
2021/05/06 02:21:55;;;;;;;13.20;9.50;;;4.30;1.00;;;;;;5103572;27;20838;-71
2021/05/06 02:24:21;;;;;;;12.70;8.73;;;4.50;1.00;;;;;;5102162;27;20460;-72
2021/05/06 02:26:47;;;;;;;12.93;8.30;;;4.60;1.00;;;;;;5103160;27;20774;-71
2021/05/06 02:29:12;;;;;;;12.60;9.10;;;4.60;1.00;;;;;;5105684;27;21029;-72
2021/05/06 02:31:38;;;;;;;9.70;7.77;;;4.60;1.00;;;;;;5106802;27;20209;-71
2021/05/06 02:34:04;;;;;;;10.73;8.70;;;4.70;1.00;;;;;;5101072;27;20264;-72
2021/05/06 02:36:30;;;;;;;9.17;6.50;;;4.80;1.00;;;;;;5099451;27;20199;-72
2021/05/06 02:38:55;;;;;;;10.60;6.73;;;4.80;1.00;;;;;;5103808;27;20442;-71
2021/05/06 02:41:21;;;;;;;9.30;7.63;;;4.80;1.00;;;;;;5098013;27;20649;-71
2021/05/06 02:43:47;;;;;;;7.17;6.47;;;4.80;1.00;;;;;;5105781;27;20188;-72
2021/05/06 02:46:12;;;;;;;8.80;5.53;;;4.80;1.00;;;;;;5108619;27;20220;-72
2021/05/06 02:48:38;;;;;;;9.20;6.63;;;4.80;1.00;;;;;;5103309;27;20184;-72
2021/05/06 02:51:05;;;;;;;7.93;5.63;;;4.90;1.00;;;;;;5103262;27;20187;-72
2021/05/06 02:53:37;;;;;;;11.73;5.50;;;4.90;1.00;;;;;;5104490;27;20326;-71
2021/05/06 03:04:00;;;;;;;6.50;5.90;;;4.90;1.00;;;;;;5102627;27;20447;-71
2021/05/06 03:06:28;;;;;;;6.80;5.67;;;4.90;1.00;;;;;;5101982;27;20444;-72
2021/05/06 03:09:00;;;;;;;5.60;5.03;;;4.80;1.00;;;;;;5100986;27;20528;-71
2021/05/06 03:11:36;;;;;;;6.80;5.57;;;4.80;1.00;;;;;;5106307;27;20451;-72
2021/05/06 03:24:58;;;;;;;10.20;6.83;;;4.70;83.90;;;;;;5105831;27;20442;-71
2021/05/06 03:27:29;;;;;;;11.20;7.77;;;4.70;99.90;;;;;;5103192;27;20453;-72
2021/05/06 03:32:38;;;;;;;11.53;7.63;;;4.70;99.90;;;;;;5101631;27;20449;-72
2021/05/06 03:43:56;;;;;;;8.93;8.03;;;4.60;99.90;;;;;;5076721;27;20540;-72
2021/05/06 04:15:49;;;;;;;12.00;8.20;;;4.70;99.90;;;;;;5107133;27;20494;-72
2021/05/06 04:18:21;;;;;;;9.97;8.83;;;4.70;99.90;;;;;;5084467;27;20492;-72
2021/05/06 04:26:23;;;;;;;8.93;7.97;;;4.80;99.90;;;;;;5102609;27;20502;-72
2021/05/06 04:37:03;;;;;;;9.57;7.60;;;4.80;99.90;;;;;;5105088;27;20464;-71
2021/05/06 04:40:16;;;;;;;17.03;8.17;;;4.90;99.90;;;;;;5104530;27;20445;-71
2021/05/06 04:55:56;;;;;;;10.53;6.87;;;4.90;99.90;;;;;;5100412;27;20828;-72
2021/05/06 05:06:09;;;;;;;9.43;7.00;;;5.00;99.90;;;;;;5090582;27;22328;-70
2021/05/06 05:08:42;;;;;;;9.33;6.97;;;5.10;99.90;;;;;;5096263;27;20663;-71
2021/05/06 05:11:27;;;;;;;9.10;6.30;;;5.10;96.50;;;;;;5100765;27;20447;-71
2021/05/06 05:27:23;;;;;;;12.80;7.20;;;5.20;14.90;;;;;;5105847;27;20587;-71
2021/05/06 05:29:49;;;;;;;12.80;8.33;;;5.20;26.30;;;;;;5108507;27;20473;-71
2021/05/06 05:32:15;;;;;;;17.20;7.10;;;5.30;4.30;;;;;;5106610;27;21018;-71
2021/05/06 05:34:46;;;;;;;9.77;7.67;;;5.30;1.00;;;;;;5106260;27;20874;-71
2021/05/06 05:37:17;;;;;;;14.70;6.67;;;5.30;1.00;;;;;;5105921;27;20473;-71
2021/05/06 05:40:04;;;;;;;8.10;6.73;;;5.40;12.60;;;;;;5108485;27;20435;-71
2021/05/06 05:42:40;;;;;;;13.17;8.33;;;5.40;12.90;;;;;;5092068;27;20433;-71
2021/05/06 05:45:38;;;;;;;10.90;8.60;;;5.50;3.60;;;;;;5104388;27;20464;-71
2021/05/06 05:56:05;;;;;;;16.23;10.20;;;5.50;1.00;;;;;;5104436;27;20426;-71
2021/05/06 05:58:31;;;;;;;12.10;10.27;;;5.40;1.00;;;;;;5092405;27;20812;-71
2021/05/06 06:00:56;;;;;;;17.30;12.20;;;5.40;1.00;;;;;;5087454;27;20737;-70
2021/05/06 06:03:22;;;;;;;15.00;11.67;;;5.40;1.00;;;;;;5106754;27;20446;-71
2021/05/06 06:05:48;;;;;;;15.77;11.20;;;5.40;1.00;;;;;;5105050;27;20209;-71
2021/05/06 06:08:18;;;;;;;15.13;12.00;;;5.40;1.00;;;;;;5104222;27;20736;-70
2021/05/06 06:10:45;;;;;;;19.53;12.57;;;5.40;1.00;;;;;;5087235;27;20460;-70
2021/05/06 06:13:10;;;;;;;18.83;12.97;;;5.40;1.00;;;;;;5110964;27;20862;-71
2021/05/06 06:18:27;;;;;;;15.33;11.83;;;5.40;1.00;;;;;;5104361;27;20196;-71
2021/05/06 06:21:01;;;;;;;17.23;12.63;;;5.40;1.00;;;;;;5107521;27;20435;-70
2021/05/06 06:23:27;;;;;;;16.70;11.90;;;5.40;1.00;;;;;;5108130;27;20451;-71
2021/05/06 06:25:54;;;;;;;17.13;13.00;;;5.40;1.00;;;;;;5108338;27;20446;-70
2021/05/06 06:28:21;;;;;;;18.10;13.77;;;5.40;1.00;;;;;;5103782;27;20589;-70
2021/05/06 06:30:47;;;;;;;19.30;12.27;;;5.40;1.00;;;;;;5105361;27;21098;-71
2021/05/06 06:33:12;;;;;;;16.60;12.30;;;5.40;1.00;;;;;;5102611;27;20486;-70
2021/05/06 06:35:38;;;;;;;20.63;13.17;;;5.50;1.00;;;;;;5104723;27;20282;-70
2021/05/06 06:38:04;;;;;;;16.80;12.30;;;5.50;1.00;;;;;;5103159;27;20192;-71
2021/05/06 06:40:29;;;;;;;18.67;13.20;;;5.60;1.00;;;;;;5105412;27;21428;-71
2021/05/06 06:42:55;;;;;;;13.87;11.80;;;5.70;1.00;;;;;;5106686;27;20857;-71
2021/05/06 06:45:21;;;;;;;15.43;12.07;;;5.70;1.00;;;;;;5114475;27;20205;-71
2021/05/06 06:47:54;;;;;;;17.23;12.73;;;5.80;1.00;;;;;;5109860;27;20193;-71
2021/05/06 06:50:20;;;;;;;16.33;12.20;;;5.90;1.00;;;;;;5107974;27;20447;-71
2021/05/06 06:52:45;;;;;;;16.77;12.40;;;6.00;1.00;;;;;;5107081;27;20450;-71
2021/05/06 06:55:11;;;;;;;15.27;12.27;;;6.10;1.00;;;;;;5107357;27;20174;-72
2021/05/06 06:57:37;;;;;;;17.50;12.00;;;6.10;1.00;;;;;;5107052;27;20192;-71
2021/05/06 07:00:04;;;;;;;16.80;11.80;;;6.10;1.00;;;;;;5107275;27;20658;-71
2021/05/06 07:02:30;;;;;;;23.37;12.47;;;6.10;1.00;;;;;;5108363;27;20319;-71
2021/05/06 07:04:56;;;;;;;17.70;13.73;;;6.10;1.00;;;;;;5105346;27;20450;-71
2021/05/06 07:07:22;;;;;;;16.30;13.00;;;6.00;1.00;;;;;;5106075;27;20207;-70
2021/05/06 07:09:48;;;;;;;16.40;12.13;;;6.10;1.00;;;;;;5102852;27;20458;-71
2021/05/06 07:12:13;;;;;;;15.97;12.30;;;6.10;1.00;;;;;;5107208;27;20188;-70
2021/05/06 07:14:39;;;;;;;17.50;13.27;;;6.10;1.00;;;;;;5085051;27;20213;-71
2021/05/06 07:17:05;;;;;;;19.47;14.47;;;6.10;1.00;;;;;;5092352;27;20265;-71
2021/05/06 07:19:30;;;;;;;23.73;14.60;;;6.00;1.00;;;;;;5088607;27;20585;-72
2021/05/06 07:21:56;;;;;;;18.97;15.10;;;6.00;1.00;;;;;;5095039;27;20673;-71
2021/05/06 07:24:22;;;;;;;19.13;15.17;;;6.00;1.00;;;;;;5096025;27;20955;-71
2021/05/06 07:26:48;;;;;;;19.57;15.30;;;6.10;1.00;;;;;;5098597;27;20449;-72
2021/05/06 07:29:16;;;;;;;22.40;15.90;;;6.10;1.00;;;;;;5083701;27;20204;-72
2021/05/06 07:31:42;;;;;;;17.10;14.50;;;6.20;1.00;;;;;;5095217;27;20583;-72
2021/05/06 07:34:07;;;;;;;16.67;13.60;;;6.30;1.00;;;;;;5090946;27;20485;-71
2021/05/06 07:36:33;;;;;;;14.93;12.30;;;6.40;1.00;;;;;;5092040;27;20256;-72
2021/05/06 07:38:59;;;;;;;16.47;12.60;;;6.50;1.00;;;;;;5094127;27;20538;-72
2021/05/06 07:41:24;;;;;;;15.33;12.40;;;6.60;1.00;;;;;;5097004;27;20257;-71
2021/05/06 07:43:50;;;;;;;15.27;12.77;;;6.70;1.00;;;;;;5096138;27;20190;-72
2021/05/06 07:46:16;;;;;;;14.90;11.27;;;6.90;1.00;;;;;;5094510;27;20217;-72
2021/05/06 07:48:41;;;;;;;18.10;12.17;;;7.00;1.00;;;;;;5077287;27;20208;-71
2021/05/06 07:51:07;;;;;;;13.70;11.83;;;7.30;1.00;;;;;;5095081;27;20290;-71
2021/05/06 07:53:49;;;;;;;12.23;10.93;;;7.40;1.00;;;;;;5095102;27;20211;-71
2021/05/06 07:56:16;;;;;;;13.93;11.90;;;7.30;1.00;;;;;;5094698;27;20185;-71
2021/05/06 07:58:42;;;;;;;16.53;10.83;;;7.10;1.00;;;;;;5095635;27;20474;-70
2021/05/06 08:01:07;;;;;;;13.83;11.10;;;7.10;1.00;;;;;;5093434;27;20568;-71
2021/05/06 08:03:34;;;;;;;11.77;10.27;;;7.00;1.00;;;;;;5089806;27;20188;-70
2021/05/06 08:06:00;;;;;;;14.63;10.73;;;6.90;1.00;;;;;;5090272;27;20812;-71
2021/05/06 08:08:26;;;;;;;13.10;11.23;;;6.80;1.00;;;;;;5092581;27;20442;-70
2021/05/06 08:10:56;;;;;;;13.63;10.60;;;7.00;1.00;;;;;;5093349;27;20816;-70
2021/05/06 08:13:22;;;;;;;14.60;10.77;;;7.00;1.00;;;;;;5091533;27;20475;-70
2021/05/06 08:15:49;;;;;;;15.83;12.00;;;6.90;1.00;;;;;;5095020;27;20511;-71
2021/05/06 08:18:15;;;;;;;14.20;10.13;;;7.00;1.00;;;;;;5093674;27;20445;-71
2021/05/06 08:20:41;;;;;;;13.40;11.67;;;7.10;1.00;;;;;;5092563;27;21105;-71
2021/05/06 08:23:09;;;;;;;14.03;9.60;;;7.30;1.00;;;;;;5075814;28;20312;-71
2021/05/06 08:25:36;;;;;;;11.30;10.10;;;7.50;1.00;;;;;;5095153;27;20485;-71
2021/05/06 08:28:02;;;;;;;12.00;9.93;;;7.50;1.00;;;;;;5105541;27;20546;-71
2021/05/06 08:30:28;;;;;;;13.17;10.40;;;7.50;1.00;;;;;;5101463;27;20483;-71
2021/05/06 08:32:53;;;;;;;10.47;9.37;;;7.40;1.00;;;;;;5094199;27;22483;-70
2021/05/06 08:35:19;;;;;;;10.70;9.17;;;7.40;1.00;;;;;;5094622;27;20213;-70
2021/05/06 08:37:45;;;;;;;13.17;10.67;;;7.30;1.00;;;;;;5094829;27;20205;-71
2021/05/06 08:40:11;;;;;;;12.53;9.20;;;7.30;1.00;;;;;;5094397;27;20918;-71
2021/05/06 08:42:38;;;;;;;10.70;9.57;;;7.20;1.00;;;;;;5100835;27;20188;-71
2021/05/06 08:45:06;;;;;;;11.80;10.40;;;7.20;1.00;;;;;;5097287;27;20454;-71
2021/05/06 08:47:32;;;;;;;17.50;14.13;;;7.20;1.00;;;;;;5099890;27;20463;-71
2021/05/06 08:49:59;;;;;;;15.77;14.03;;;7.10;1.00;;;;;;5110708;27;20442;-71
2021/05/06 08:52:26;;;;;;;17.63;14.67;;;7.10;1.00;;;;;;5105836;27;20470;-71
2021/05/06 08:54:55;;;;;;;18.87;14.20;;;7.10;1.00;;;;;;5114451;27;21065;-71
2021/05/06 08:57:25;;;;;;;17.17;14.83;;;7.00;1.00;;;;;;5120424;27;20565;-71
2021/05/06 08:59:52;;;;;;;15.90;13.43;;;7.00;1.00;;;;;;5117508;27;20440;-71
2021/05/06 09:02:19;;;;;;;13.87;12.37;;;7.40;1.00;;;;;;5106214;27;20508;-71
2021/05/06 09:04:44;;;;;;;15.07;13.47;;;7.80;1.00;;;;;;5096442;27;20464;-71
2021/05/06 09:07:11;;;;;;;13.90;11.80;;;8.20;1.00;;;;;;5100081;27;20499;-71
2021/05/06 09:10:03;;;;;;;11.23;10.03;;;8.40;1.00;;;;;;5102157;27;20202;-72
2021/05/06 09:12:39;;;;;;;12.93;11.20;;;8.30;1.00;;;;;;5100741;27;20505;-72
2021/05/06 09:15:13;;;;;;;11.10;8.70;;;8.30;1.00;;;;;;5106081;27;20911;-72
2021/05/06 09:17:39;;;;;;;7.90;6.60;;;8.20;1.00;;;;;;5080544;27;23021;-72
2021/05/06 09:20:09;;;;;;;5.57;5.03;;;8.30;1.00;;;;;;5097555;27;20449;-72
2021/05/06 09:22:38;;;;;;;5.73;5.10;;;8.40;1.00;;;;;;5096180;27;21080;-72
2021/05/06 09:25:32;;;;;;;8.00;5.50;;;8.40;1.00;;;;;;5074414;27;20537;-72
2021/05/06 09:28:15;;;;;;;6.00;4.40;;;8.60;1.00;;;;;;5096651;27;20877;-72
2021/05/06 09:30:56;;;;;;;6.70;4.97;;;8.70;1.00;;;;;;5093786;27;20442;-72
2021/05/06 09:33:38;;;;;;;5.90;5.10;;;8.70;1.00;;;;;;5100659;27;20484;-72
2021/05/06 09:36:30;;;;;;;6.90;5.30;;;8.60;1.00;;;;;;5096827;27;20452;-72
2021/05/06 09:38:58;;;;;;;6.37;5.50;;;8.60;1.00;;;;;;5094054;27;20443;-72
2021/05/06 09:41:26;;;;;;;6.60;5.23;;;8.60;1.00;;;;;;5098208;27;20558;-72
2021/05/06 09:43:53;;;;;;;5.80;4.93;;;8.80;1.00;;;;;;5096740;27;20446;-71
2021/05/06 09:46:41;;;;;;;5.53;4.17;;;8.90;1.00;;;;;;5094185;27;21497;-72
2021/05/06 09:49:12;;;;;;;4.50;3.60;;;8.80;1.00;;;;;;5068137;27;21246;-72
2021/05/06 09:51:50;;;;;;;7.93;4.10;;;9.10;1.00;;;;;;5096387;27;20932;-72
2021/05/06 09:54:23;;;;;;;7.00;4.87;;;9.60;1.00;;;;;;5097925;27;21017;-72
2021/05/06 09:57:01;;;;;;;5.50;4.10;;;9.50;1.00;;;;;;5084829;27;20475;-72
2021/05/06 09:59:29;;;;;;;6.23;4.57;;;9.60;1.00;;;;;;5099805;27;20461;-72
2021/05/06 10:02:09;;;;;;;7.10;5.30;;;9.50;1.00;;;;;;5098331;27;20477;-72
2021/05/06 10:04:37;;;;;;;5.80;4.37;;;9.90;1.00;;;;;;5099904;27;21050;-72
2021/05/06 10:07:23;;;;;;;5.33;4.50;;;10.00;1.00;;;;;;5096104;27;20442;-72
2021/05/06 10:09:58;;;;;;;4.10;3.40;;;10.10;1.00;;;;;;5096461;27;20442;-72
2021/05/06 10:12:26;;;;;;;7.00;4.23;;;9.90;1.00;;;;;;5097322;27;20453;-72
2021/05/06 10:14:52;;;;;;;9.87;4.67;;;9.50;1.00;;;;;;5096629;27;20524;-72
2021/05/06 10:17:19;;;;;;;5.77;4.00;;;9.30;1.00;;;;;;5097404;27;20465;-72
2021/05/06 10:19:46;;;;;;;4.53;3.90;;;9.20;1.00;;;;;;5099835;27;20582;-72
2021/05/06 10:22:15;;;;;;;8.40;3.60;;;9.40;1.00;;;;;;5098678;27;20534;-72
2021/05/06 10:24:42;;;;;;;3.40;3.10;;;9.30;1.00;;;;;;5093564;27;20470;-72
2021/05/06 10:27:15;;;;;;;4.83;3.60;;;9.30;1.00;;;;;;5082425;27;20469;-72
2021/05/06 10:29:42;;;;;;;8.27;3.80;;;9.70;1.00;;;;;;5101272;27;20463;-72
2021/05/06 10:32:13;;;;;;;3.97;3.40;;;10.50;1.00;;;;;;5091371;27;20493;-72
2021/05/06 10:34:42;;;;;;;5.13;3.23;;;10.60;1.00;;;;;;5094007;27;20993;-72
2021/05/06 10:37:08;;;;;;;5.60;3.60;;;10.70;1.00;;;;;;5085005;27;20491;-72
2021/05/06 10:39:41;;;;;;;4.27;3.43;;;10.50;1.00;;;;;;5098029;27;20201;-72
2021/05/06 10:42:25;;;;;;;5.70;3.77;;;10.40;1.00;;;;;;5093487;27;20737;-72
2021/05/06 10:44:58;;;;;;;7.00;3.20;;;10.50;1.00;;;;;;5102499;27;20457;-72
2021/05/06 10:47:42;;;;;;;4.33;2.90;;;10.60;1.00;;;;;;5103243;27;20463;-72
2021/05/06 10:50:12;;;;;;;4.00;3.20;;;10.80;1.00;;;;;;5088561;27;20498;-72
2021/05/06 10:52:46;;;;;;;3.40;2.67;;;10.80;1.00;;;;;;5103240;27;20543;-72
2021/05/06 10:55:14;;;;;;;4.13;2.80;;;10.80;1.00;;;;;;5102368;27;20628;-72
2021/05/06 10:57:41;;;;;;;4.83;3.20;;;10.60;1.00;;;;;;5103928;27;20447;-72
2021/05/06 11:00:24;;;;;;;4.73;3.10;;;10.90;1.00;;;;;;5107302;27;20538;-72
2021/05/06 11:02:53;;;;;;;4.93;3.40;;;11.50;1.00;;;;;;5102461;27;25830;-72
2021/05/06 11:05:21;;;;;;;3.20;2.47;;;11.70;1.00;;;;;;5102621;27;20444;-72
2021/05/06 11:08:05;;;;;;;2.97;2.70;;;12.00;1.00;;;;;;5105760;27;20448;-73
2021/05/06 11:10:43;;;;;;;2.90;2.60;;;12.00;1.00;;;;;;5105094;27;20447;-72
2021/05/06 11:13:08;;;;;;;4.40;2.50;;;11.60;1.00;;;;;;5102484;27;20453;-72
2021/05/06 11:15:36;;;;;;;5.10;3.03;;;11.90;1.00;;;;;;5102665;27;20506;-73
2021/05/06 11:18:04;;;;;;;4.13;2.63;;;11.70;1.00;;;;;;5106035;27;20204;-72
2021/05/06 11:20:29;;;;;;;5.23;2.63;;;11.70;1.00;;;;;;5105273;27;20441;-72
2021/05/06 11:22:57;;;;;;;3.93;3.30;;;12.10;1.00;;;;;;5103041;27;21338;-72
2021/05/06 11:25:38;;;;;;;3.93;2.87;;;12.30;1.00;;;;;;5103515;27;20188;-72
2021/05/06 11:28:24;;;;;;;6.30;2.97;;;12.30;1.00;;;;;;5104399;27;20438;-73
2021/05/06 11:30:52;;;;;;;3.73;3.10;;;12.40;1.00;;;;;;5102824;27;21026;-72
2021/05/06 11:33:21;;;;;;;4.70;2.70;;;12.10;1.00;;;;;;5103156;27;20477;-72
2021/05/06 11:35:57;;;;;;;3.37;3.00;;;12.10;1.00;;;;;;5105245;27;20438;-72
2021/05/06 11:38:35;;;;;;;2.30;2.03;;;12.20;1.00;;;;;;5103229;27;20444;-72
2021/05/06 11:41:02;;;;;;;2.83;2.33;;;11.90;1.00;;;;;;5083959;27;20614;-72
2021/05/06 11:43:28;;;;;;;3.47;2.00;;;12.20;1.00;;;;;;5104740;27;20870;-72
2021/05/06 11:46:11;;;;;;;3.70;2.67;;;12.40;1.00;;;;;;5104236;27;20547;-72
2021/05/06 11:48:38;;;;;;;3.50;2.10;;;12.40;1.00;;;;;;5103587;27;20215;-72
2021/05/06 11:51:05;;;;;;;3.30;2.30;;;12.30;1.00;;;;;;5102511;27;20507;-72
2021/05/06 11:53:31;;;;;;;4.07;2.27;;;12.50;1.00;;;;;;5100803;27;20533;-72
2021/05/06 11:55:57;;;;;;;2.60;2.40;;;12.90;1.00;;;;;;5090358;27;20482;-72
2021/05/06 11:58:25;;;;;;;4.37;2.30;;;12.90;1.00;;;;;;5105856;27;20294;-72
2021/05/06 12:00:53;;;;;;;2.23;2.03;;;12.60;1.00;;;;;;5103484;27;20955;-72
2021/05/06 12:03:19;;;;;;;4.10;2.40;;;12.70;1.00;;;;;;5083764;27;20887;-73
2021/05/06 12:05:59;;;;;;;3.13;1.80;;;12.30;1.00;;;;;;5102493;27;20455;-72
2021/05/06 12:08:31;;;;;;;4.00;2.10;;;11.80;1.00;;;;;;5101697;27;20185;-73
2021/05/06 12:10:59;;;;;;;2.87;1.80;;;11.60;1.00;;;;;;5102497;27;20445;-72
2021/05/06 12:13:33;;;;;;;4.57;2.10;;;11.40;1.00;;;;;;5103186;27;20497;-72
2021/05/06 12:16:21;;;;;;;4.80;1.90;;;11.60;1.00;;;;;;5104592;27;20446;-72
2021/05/06 12:19:06;;;;;;;3.10;1.30;;;11.70;1.00;;;;;;5101010;27;20462;-72
2021/05/06 12:21:43;;;;;;;4.77;1.60;;;11.90;1.00;;;;;;5105173;27;20534;-72
2021/05/06 12:24:11;;;;;;;4.33;1.80;;;11.80;1.00;;;;;;5105169;27;20461;-72
2021/05/06 12:26:38;;;;;;;2.87;1.60;;;11.70;1.00;;;;;;5107393;27;20440;-73
2021/05/06 12:29:04;;;;;;;2.30;1.77;;;11.70;1.00;;;;;;5106424;27;20545;-72
2021/05/06 12:31:30;;;;;;;2.70;1.60;;;11.70;1.00;;;;;;5106419;27;20454;-72
2021/05/06 12:33:56;;;;;;;3.83;2.20;;;11.80;1.00;;;;;;5106736;27;20480;-72
2021/05/06 12:36:22;;;;;;;2.37;1.50;;;11.70;1.00;;;;;;5107441;27;20465;-72
2021/05/06 12:38:49;;;;;;;2.80;2.00;;;11.80;1.00;;;;;;5109943;27;20529;-72
2021/05/06 12:41:15;;;;;;;3.07;2.30;;;11.90;1.00;;;;;;5106586;27;23590;-72
2021/05/06 12:43:49;;;;;;;2.80;2.10;;;11.70;1.00;;;;;;5111041;27;20545;-72
2021/05/06 12:46:24;;;;;;;2.93;2.00;;;11.60;1.00;;;;;;5104119;27;20465;-73
2021/05/06 12:48:54;;;;;;;3.20;1.90;;;11.60;1.00;;;;;;5106864;27;20465;-72
2021/05/06 12:51:30;;;;;;;3.37;2.20;;;11.70;1.00;;;;;;5086730;27;20451;-72
2021/05/06 12:54:12;;;;;;;3.53;2.50;;;12.00;1.00;;;;;;5106626;27;20465;-72
2021/05/06 12:56:42;;;;;;;3.17;2.20;;;12.20;1.00;;;;;;5110126;27;20451;-72
2021/05/06 12:59:27;;;;;;;2.40;2.20;;;12.40;1.00;;;;;;5110190;27;20438;-72
2021/05/06 13:02:06;;;;;;;5.83;2.17;;;12.50;1.00;;;;;;5110723;27;20459;-71
2021/05/06 13:04:45;;;;;;;2.10;1.80;;;12.70;1.00;;;;;;5105543;27;20779;-72
2021/05/06 13:07:11;;;;;;;2.93;2.07;;;12.60;1.00;;;;;;5102896;27;20443;-72
2021/05/06 13:09:42;;;;;;;5.30;2.10;;;12.50;1.00;;;;;;5108050;27;20450;-71
2021/05/06 13:12:11;;;;;;;4.70;2.07;;;12.10;1.00;;;;;;5104704;27;20207;-72
2021/05/06 13:15:02;;;;;;;5.50;2.10;;;11.90;1.00;;;;;;5105475;27;20559;-71
2021/05/06 13:17:35;;;;;;;3.27;2.30;;;11.70;1.00;;;;;;5106265;27;21319;-72
2021/05/06 13:20:20;;;;;;;2.70;2.20;;;11.60;1.00;;;;;;5088583;27;20450;-71
2021/05/06 13:23:07;;;;;;;2.93;2.20;;;11.60;1.00;;;;;;5107889;27;20886;-71
2021/05/06 13:25:43;;;;;;;2.60;1.90;;;11.60;1.00;;;;;;5108235;27;20476;-72
2021/05/06 13:28:33;;;;;;;4.13;2.27;;;11.40;1.00;;;;;;5109557;27;21014;-72
2021/05/06 13:31:18;;;;;;;4.57;2.33;;;11.30;1.00;;;;;;5092721;27;21064;-72
2021/05/06 13:33:46;;;;;;;3.33;2.23;;;11.30;1.00;;;;;;5098557;27;20465;-72
2021/05/06 13:36:13;;;;;;;3.57;2.20;;;11.40;1.00;;;;;;5104647;27;20474;-72
2021/05/06 13:39:00;;;;;;;2.30;1.53;;;11.40;1.00;;;;;;5100785;27;20541;-72
2021/05/06 13:41:35;;;;;;;4.77;2.47;;;11.60;1.00;;;;;;5103274;27;20437;-72
2021/05/06 13:44:03;;;;;;;3.10;1.97;;;11.70;1.00;;;;;;5099320;27;21087;-72
2021/05/06 13:46:30;;;;;;;2.80;1.60;;;12.10;1.00;;;;;;5101996;27;20974;-72
2021/05/06 13:48:56;;;;;;;3.17;1.90;;;12.40;1.00;;;;;;5101502;27;20482;-71
2021/05/06 13:51:23;;;;;;;4.83;2.00;;;12.40;1.00;;;;;;5109135;27;20442;-72
2021/05/06 13:53:50;;;;;;;2.83;2.07;;;12.40;1.00;;;;;;5106864;27;20543;-72
2021/05/06 13:56:17;;;;;;;5.00;3.00;;;12.20;1.00;;;;;;5104589;27;20440;-71
2021/05/06 13:58:43;;;;;;;3.47;1.97;;;12.00;1.00;;;;;;5105191;27;20439;-71
2021/05/06 14:01:11;;;;;;;2.17;1.90;;;12.10;1.00;;;;;;5105645;27;20429;-72
2021/05/06 14:03:37;;;;;;;3.50;2.20;;;12.10;1.00;;;;;;5097878;27;20230;-72
2021/05/06 14:06:04;;;;;;;3.97;2.00;;;12.00;1.00;;;;;;5099469;27;20833;-72
2021/05/06 14:08:30;;;;;;;3.00;2.00;;;12.00;1.00;;;;;;5107838;27;20472;-71
2021/05/06 14:10:56;;;;;;;2.70;1.93;;;11.90;1.00;;;;;;5105769;27;20441;-71
2021/05/06 14:13:23;;;;;;;2.10;1.60;;;11.90;1.00;;;;;;5106639;27;20504;-72
2021/05/06 14:15:49;;;;;;;6.30;2.67;;;11.90;1.00;;;;;;5104779;27;20439;-72
2021/05/06 14:18:15;;;;;;;7.73;2.60;;;12.00;1.00;;;;;;5107767;27;20513;-71
2021/05/06 14:20:41;;;;;;;2.37;1.73;;;11.90;1.00;;;;;;5101473;27;20451;-72
2021/05/06 14:23:08;;;;;;;2.70;1.93;;;11.90;1.00;;;;;;5106843;27;20496;-72
2021/05/06 14:25:35;;;;;;;2.17;1.80;;;12.00;1.00;;;;;;5083096;27;20879;-72
2021/05/06 14:28:01;;;;;;;4.23;1.50;;;11.90;1.00;;;;;;5103788;27;20865;-71
2021/05/06 14:30:27;;;;;;;3.13;1.80;;;11.70;1.00;;;;;;5107014;27;20552;-71
2021/05/06 14:32:53;;;;;;;3.43;2.00;;;11.70;1.00;;;;;;5102329;27;20469;-72
2021/05/06 14:35:19;;;;;;;2.17;1.70;;;11.70;1.00;;;;;;5102998;27;20700;-72
2021/05/06 14:37:44;;;;;;;1.97;1.53;;;11.80;1.00;;;;;;5101414;27;20804;-72
2021/05/06 14:40:10;;;;;;;2.30;2.10;;;11.80;1.00;;;;;;5090285;27;20239;-71
2021/05/06 14:42:36;;;;;;;5.40;2.27;;;11.80;1.00;;;;;;5100356;27;20177;-71
2021/05/06 14:45:03;;;;;;;5.00;2.00;;;11.80;1.00;;;;;;5097854;27;20459;-71
2021/05/06 14:47:29;;;;;;;3.40;2.47;;;11.60;1.00;;;;;;5075156;27;20280;-71
2021/05/06 14:49:56;;;;;;;3.97;2.43;;;11.50;1.00;;;;;;5095607;27;20446;-71
2021/05/06 14:52:23;;;;;;;7.00;2.30;;;11.40;1.00;;;;;;5104496;27;20233;-72
2021/05/06 14:54:49;;;;;;;3.03;1.80;;;11.40;1.00;;;;;;5107026;27;20469;-71
2021/05/06 14:57:15;;;;;;;4.93;2.03;;;11.40;1.00;;;;;;5106565;27;20457;-72
2021/05/06 14:59:41;;;;;;;2.50;2.03;;;11.40;1.00;;;;;;5105665;27;20460;-72
2021/05/06 15:02:08;;;;;;;3.47;2.37;;;11.50;1.00;;;;;;5103848;27;20477;-71
2021/05/06 15:04:34;;;;;;;3.47;2.17;;;11.40;1.00;;;;;;5104803;27;20199;-71
2021/05/06 15:07:00;;;;;;;2.90;2.00;;;11.40;1.00;;;;;;5103165;27;20438;-71
2021/05/06 15:09:26;;;;;;;3.97;2.40;;;11.50;1.00;;;;;;5107502;27;20464;-71
2021/05/06 15:11:55;;;;;;;6.90;2.20;;;11.60;1.00;;;;;;5105729;27;20184;-71
2021/05/06 15:14:21;;;;;;;3.63;2.60;;;11.50;1.00;;;;;;5086780;27;20482;-71
2021/05/06 15:16:47;;;;;;;2.47;2.10;;;11.50;1.00;;;;;;5107773;27;20450;-72
2021/05/06 15:19:12;;;;;;;5.43;2.10;;;11.40;1.00;;;;;;5105074;27;20461;-71
2021/05/06 15:21:38;;;;;;;4.57;2.70;;;11.40;1.00;;;;;;5102822;27;20211;-71
2021/05/06 15:24:04;;;;;;;3.40;2.17;;;11.30;1.00;;;;;;5106591;27;20540;-72
2021/05/06 15:26:29;;;;;;;4.23;2.70;;;11.20;1.00;;;;;;5088172;27;20188;-71
2021/05/06 15:28:55;;;;;;;4.00;2.57;;;10.80;1.00;;;;;;5107106;27;20187;-71
2021/05/06 15:31:21;;;;;;;3.00;2.37;;;10.70;1.00;;;;;;5106901;27;20184;-71
2021/05/06 15:33:46;;;;;;;3.37;2.70;;;10.70;1.00;;;;;;5107880;27;20207;-70
2021/05/06 15:36:16;;;;;;;3.03;2.33;;;10.70;1.00;;;;;;5112646;27;20271;-71
2021/05/06 15:38:42;;;;;;;3.53;2.30;;;10.50;1.00;;;;;;5116227;27;20188;-71
2021/05/06 15:41:07;;;;;;;7.30;2.40;;;10.40;1.00;;;;;;5113000;27;20541;-72
2021/05/06 15:43:33;;;;;;;3.27;2.43;;;10.40;1.00;;;;;;5101173;27;20242;-72
2021/05/06 15:45:59;;;;;;;4.13;2.27;;;10.40;1.00;;;;;;5103938;27;20311;-71
2021/05/06 15:48:24;;;;;;;3.80;3.00;;;10.40;1.00;;;;;;5095464;27;20223;-71
2021/05/06 15:50:50;;;;;;;4.33;2.53;;;10.40;1.00;;;;;;5095860;27;20580;-72
2021/05/06 15:53:16;;;;;;;9.80;2.83;;;10.30;1.00;;;;;;5095757;27;20183;-71
2021/05/06 15:55:42;;;;;;;5.30;2.50;;;10.30;1.00;;;;;;5099167;27;20181;-71
2021/05/06 15:58:08;;;;;;;5.03;2.10;;;10.30;1.00;;;;;;5098511;27;20710;-71
2021/05/06 16:00:34;;;;;;;3.67;2.50;;;10.40;1.00;;;;;;5104848;27;20986;-72
2021/05/06 16:03:04;;;;;;;5.20;2.90;;;10.30;1.00;;;;;;5102327;27;20545;-71
2021/05/06 16:05:30;;;;;;;4.03;2.33;;;10.30;1.00;;;;;;5104288;27;20536;-72
2021/05/06 16:07:57;;;;;;;3.17;2.37;;;10.40;1.00;;;;;;5107764;27;20500;-72
2021/05/06 16:10:24;;;;;;;3.00;2.70;;;10.30;1.00;;;;;;5103614;27;20457;-71
2021/05/06 16:12:51;;;;;;;2.90;2.20;;;10.30;1.00;;;;;;5110398;27;20450;-72
2021/05/06 16:15:17;;;;;;;2.80;2.50;;;10.20;1.00;;;;;;5107384;27;20550;-73
2021/05/06 16:17:43;;;;;;;4.10;2.70;;;10.20;1.00;;;;;;5107784;27;20933;-72
2021/05/06 16:20:15;;;;;;;2.93;2.20;;;10.10;1.00;;;;;;5085239;27;20449;-72
2021/05/06 16:22:42;;;;;;;3.60;2.60;;;10.00;1.00;;;;;;5109604;27;20449;-73